4XLOK LLBG-LLER
Flight info
| Callsign | 4XLOK |
|---|---|
| Flight time | 1h 5m |
| Altitude | 8000 |
| Route | TOMAL J10 NURIT |
| Aircraft | C208/L-SDFGR/C |
Departure
| Time | 2026-04-21 13:29 |
|---|---|
| Airport | Ben Gurion International Airport (LLBG) |
Arrival
| Time | 2026-04-21 14:34 |
|---|---|
| Airport | Ramon International Airport (LLER) |
| Time | Latitude | Longitude | Altitude | Speed | Heading |
|---|---|---|---|---|---|
| 2026-04-21 13:29 | 31.89621 | 35.08931 | 7214 ft | 136 kts | 116° |
| 2026-04-21 13:29 | 31.89229 | 35.09935 | 7403 ft | 134 kts | 116° |
| 2026-04-21 13:29 | 31.88841 | 35.10938 | 7571 ft | 138 kts | 115° |
| 2026-04-21 13:29 | 31.88435 | 35.11982 | 7722 ft | 141 kts | 116° |
| 2026-04-21 13:30 | 31.88025 | 35.13044 | 7873 ft | 143 kts | 116° |
| 2026-04-21 13:30 | 31.87604 | 35.14115 | 8027 ft | 146 kts | 116° |
| 2026-04-21 13:30 | 31.87178 | 35.15204 | 8182 ft | 147 kts | 116° |
| 2026-04-21 13:30 | 31.86746 | 35.16306 | 8342 ft | 150 kts | 116° |
| 2026-04-21 13:31 | 31.86308 | 35.17429 | 8498 ft | 151 kts | 115° |
| 2026-04-21 13:31 | 31.85871 | 35.18555 | 8648 ft | 152 kts | 116° |
| 2026-04-21 13:31 | 31.85430 | 35.19688 | 8801 ft | 153 kts | 116° |
| 2026-04-21 13:31 | 31.84988 | 35.20823 | 9021 ft | 147 kts | 115° |
| 2026-04-21 13:32 | 31.84589 | 35.21847 | 9429 ft | 128 kts | 115° |
| 2026-04-21 13:32 | 31.84229 | 35.22768 | 9674 ft | 124 kts | 116° |
| 2026-04-21 13:32 | 31.83862 | 35.23705 | 9806 ft | 129 kts | 116° |
| 2026-04-21 13:32 | 31.83482 | 35.24672 | 9934 ft | 131 kts | 116° |
| 2026-04-21 13:33 | 31.83090 | 35.25672 | 10058 ft | 137 kts | 116° |
| 2026-04-21 13:33 | 31.82695 | 35.26686 | 10302 ft | 129 kts | 116° |
| 2026-04-21 13:33 | 31.82354 | 35.27563 | 10658 ft | 107 kts | 116° |
| 2026-04-21 13:33 | 31.82039 | 35.28371 | 10777 ft | 110 kts | 116° |
| 2026-04-21 13:34 | 31.81721 | 35.29188 | 10897 ft | 108 kts | 116° |
| 2026-04-21 13:34 | 31.81414 | 35.29972 | 10990 ft | 105 kts | 116° |
| 2026-04-21 13:34 | 31.81102 | 35.30764 | 10995 ft | 109 kts | 116° |
| 2026-04-21 13:34 | 31.80778 | 35.31589 | 10999 ft | 112 kts | 117° |
| 2026-04-21 13:35 | 31.80440 | 35.32443 | 11014 ft | 119 kts | 116° |
| 2026-04-21 13:35 | 31.80076 | 35.33370 | 11017 ft | 131 kts | 116° |
| 2026-04-21 13:35 | 31.79679 | 35.34380 | 11024 ft | 142 kts | 116° |
| 2026-04-21 13:35 | 31.79248 | 35.35473 | 11021 ft | 152 kts | 116° |
| 2026-04-21 13:36 | 31.78791 | 35.36642 | 11016 ft | 162 kts | 116° |
| 2026-04-21 13:36 | 31.78314 | 35.37863 | 11015 ft | 168 kts | 116° |
| 2026-04-21 13:36 | 31.77818 | 35.39133 | 11008 ft | 174 kts | 115° |
| 2026-04-21 13:36 | 31.77305 | 35.40437 | 11006 ft | 178 kts | 115° |
| 2026-04-21 13:37 | 31.76785 | 35.41766 | 11001 ft | 181 kts | 115° |
| 2026-04-21 13:37 | 31.76255 | 35.43112 | 11006 ft | 182 kts | 116° |
| 2026-04-21 13:37 | 31.75722 | 35.44472 | 11006 ft | 184 kts | 115° |
| 2026-04-21 13:37 | 31.75186 | 35.45833 | 11005 ft | 183 kts | 114° |
| 2026-04-21 13:38 | 31.74471 | 35.47047 | 11002 ft | 181 kts | 141° |
| 2026-04-21 13:38 | 31.73789 | 35.47599 | 11002 ft | 179 kts | 156° |
| 2026-04-21 13:38 | 31.72612 | 35.47983 | 11004 ft | 175 kts | 181° |
| 2026-04-21 13:38 | 31.71422 | 35.47824 | 11006 ft | 172 kts | 198° |
| 2026-04-21 13:39 | 31.70249 | 35.47528 | 11006 ft | 172 kts | 196° |
| 2026-04-21 13:39 | 31.69072 | 35.47260 | 11004 ft | 172 kts | 196° |
| 2026-04-21 13:39 | 31.67899 | 35.46985 | 11006 ft | 172 kts | 196° |
| 2026-04-21 13:39 | 31.66725 | 35.46707 | 11004 ft | 172 kts | 196° |
| 2026-04-21 13:40 | 31.65555 | 35.46429 | 11006 ft | 172 kts | 196° |
| 2026-04-21 13:40 | 31.64382 | 35.46151 | 11006 ft | 172 kts | 196° |
| 2026-04-21 13:40 | 31.62815 | 35.45780 | 11004 ft | 172 kts | 196° |
| 2026-04-21 13:40 | 31.62041 | 35.45596 | 11002 ft | 172 kts | 196° |
| 2026-04-21 13:41 | 31.60866 | 35.45332 | 11002 ft | 172 kts | 195° |
| 2026-04-21 13:41 | 31.59689 | 35.45072 | 11000 ft | 172 kts | 195° |
| 2026-04-21 13:41 | 31.58517 | 35.44812 | 11002 ft | 172 kts | 195° |
| 2026-04-21 13:41 | 31.57342 | 35.44549 | 11002 ft | 172 kts | 195° |
| 2026-04-21 13:42 | 31.56168 | 35.44287 | 11001 ft | 172 kts | 195° |
| 2026-04-21 13:42 | 31.54993 | 35.44025 | 11001 ft | 172 kts | 195° |
| 2026-04-21 13:42 | 31.53821 | 35.43764 | 11002 ft | 172 kts | 195° |
| 2026-04-21 13:42 | 31.52646 | 35.43502 | 11000 ft | 172 kts | 195° |
| 2026-04-21 13:43 | 31.51473 | 35.43240 | 10999 ft | 172 kts | 195° |
| 2026-04-21 13:43 | 31.50301 | 35.42979 | 10999 ft | 172 kts | 195° |
| 2026-04-21 13:43 | 31.49125 | 35.42717 | 10999 ft | 172 kts | 195° |
| 2026-04-21 13:43 | 31.47950 | 35.42455 | 11001 ft | 172 kts | 195° |
| 2026-04-21 13:44 | 31.46776 | 35.42194 | 10996 ft | 172 kts | 195° |
| 2026-04-21 13:44 | 31.45603 | 35.41932 | 10998 ft | 172 kts | 195° |
| 2026-04-21 13:44 | 31.44428 | 35.41671 | 10996 ft | 172 kts | 195° |
| 2026-04-21 13:44 | 31.43254 | 35.41409 | 10999 ft | 172 kts | 195° |
| 2026-04-21 13:45 | 31.42080 | 35.41148 | 10996 ft | 172 kts | 195° |
| 2026-04-21 13:45 | 31.40904 | 35.40887 | 10996 ft | 172 kts | 195° |
| 2026-04-21 13:45 | 31.39731 | 35.40625 | 10995 ft | 172 kts | 195° |
| 2026-04-21 13:45 | 31.38554 | 35.40364 | 10997 ft | 173 kts | 195° |
| 2026-04-21 13:46 | 31.37369 | 35.40101 | 10997 ft | 173 kts | 195° |
| 2026-04-21 13:46 | 31.36185 | 35.39836 | 10998 ft | 173 kts | 195° |
| 2026-04-21 13:46 | 31.35001 | 35.39573 | 10997 ft | 173 kts | 195° |
| 2026-04-21 13:46 | 31.33819 | 35.39312 | 10994 ft | 173 kts | 195° |
| 2026-04-21 13:47 | 31.32630 | 35.39105 | 10997 ft | 174 kts | 188° |
| 2026-04-21 13:47 | 31.31428 | 35.38991 | 10995 ft | 173 kts | 189° |
| 2026-04-21 13:47 | 31.30224 | 35.38861 | 10997 ft | 174 kts | 189° |
| 2026-04-21 13:47 | 31.29019 | 35.38731 | 10991 ft | 174 kts | 189° |
| 2026-04-21 13:48 | 31.27812 | 35.38602 | 10997 ft | 174 kts | 189° |
| 2026-04-21 13:48 | 31.26603 | 35.38475 | 10997 ft | 174 kts | 189° |
| 2026-04-21 13:48 | 31.25392 | 35.38348 | 10995 ft | 175 kts | 189° |
| 2026-04-21 13:48 | 31.24183 | 35.38221 | 10995 ft | 175 kts | 189° |
| 2026-04-21 13:49 | 31.22966 | 35.38094 | 10993 ft | 176 kts | 189° |
| 2026-04-21 13:49 | 31.21753 | 35.37966 | 10992 ft | 175 kts | 189° |
| 2026-04-21 13:49 | 31.20541 | 35.37838 | 10990 ft | 175 kts | 189° |
| 2026-04-21 13:49 | 31.19333 | 35.37712 | 10991 ft | 174 kts | 189° |
| 2026-04-21 13:50 | 31.18124 | 35.37585 | 10990 ft | 174 kts | 189° |
| 2026-04-21 13:50 | 31.16916 | 35.37457 | 10991 ft | 174 kts | 189° |
| 2026-04-21 13:50 | 31.15723 | 35.37333 | 10990 ft | 174 kts | 189° |
| 2026-04-21 13:50 | 31.14497 | 35.37208 | 10990 ft | 175 kts | 189° |
| 2026-04-21 13:51 | 31.13286 | 35.37082 | 10987 ft | 175 kts | 189° |
| 2026-04-21 13:51 | 31.12093 | 35.36958 | 10988 ft | 175 kts | 189° |
| 2026-04-21 13:51 | 31.10886 | 35.36834 | 10989 ft | 174 kts | 189° |
| 2026-04-21 13:51 | 31.09661 | 35.36710 | 10988 ft | 174 kts | 189° |
| 2026-04-21 13:52 | 31.08470 | 35.36586 | 10986 ft | 174 kts | 189° |
| 2026-04-21 13:52 | 31.07265 | 35.36462 | 10985 ft | 174 kts | 189° |
| 2026-04-21 13:52 | 31.06064 | 35.36338 | 10985 ft | 173 kts | 189° |
| 2026-04-21 13:52 | 31.04862 | 35.36215 | 10987 ft | 173 kts | 189° |
| 2026-04-21 13:53 | 31.03662 | 35.36092 | 10985 ft | 174 kts | 189° |
| 2026-04-21 13:53 | 31.02456 | 35.35967 | 10987 ft | 174 kts | 189° |
| 2026-04-21 13:53 | 31.01244 | 35.35842 | 10987 ft | 175 kts | 189° |
| 2026-04-21 13:53 | 31.00032 | 35.35718 | 10987 ft | 175 kts | 189° |
| 2026-04-21 13:54 | 30.98820 | 35.35593 | 10987 ft | 175 kts | 189° |
| 2026-04-21 13:54 | 30.97607 | 35.35469 | 10988 ft | 175 kts | 189° |
| 2026-04-21 13:54 | 30.96395 | 35.35345 | 10987 ft | 174 kts | 189° |
| 2026-04-21 13:54 | 30.95188 | 35.35221 | 10986 ft | 174 kts | 189° |
| 2026-04-21 13:55 | 30.94012 | 35.34970 | 10982 ft | 170 kts | 207° |
| 2026-04-21 13:55 | 30.92935 | 35.34407 | 10983 ft | 170 kts | 207° |
| 2026-04-21 13:55 | 30.91845 | 35.33878 | 10985 ft | 170 kts | 207° |
| 2026-04-21 13:55 | 30.90757 | 35.33344 | 10984 ft | 170 kts | 207° |
| 2026-04-21 13:56 | 30.89666 | 35.32805 | 10984 ft | 171 kts | 207° |
| 2026-04-21 13:56 | 30.88576 | 35.32269 | 10985 ft | 170 kts | 207° |
| 2026-04-21 13:56 | 30.87486 | 35.31731 | 10984 ft | 170 kts | 207° |
| 2026-04-21 13:56 | 30.86396 | 35.31193 | 10983 ft | 170 kts | 207° |
| 2026-04-21 13:57 | 30.85303 | 35.30654 | 10980 ft | 170 kts | 207° |
| 2026-04-21 13:57 | 30.84212 | 35.30116 | 10980 ft | 170 kts | 207° |
| 2026-04-21 13:57 | 30.83120 | 35.29577 | 10981 ft | 171 kts | 207° |
| 2026-04-21 13:57 | 30.82026 | 35.29038 | 10980 ft | 171 kts | 207° |
| 2026-04-21 13:58 | 30.80931 | 35.28499 | 10980 ft | 171 kts | 207° |
| 2026-04-21 13:58 | 30.79836 | 35.27959 | 10982 ft | 171 kts | 207° |
| 2026-04-21 13:58 | 30.78742 | 35.27420 | 10982 ft | 171 kts | 207° |
| 2026-04-21 13:58 | 30.77648 | 35.26883 | 10980 ft | 171 kts | 207° |
| 2026-04-21 13:59 | 30.76553 | 35.26342 | 10985 ft | 172 kts | 207° |
| 2026-04-21 13:59 | 30.75469 | 35.25809 | 10981 ft | 171 kts | 207° |
| 2026-04-21 13:59 | 30.74376 | 35.25270 | 10980 ft | 171 kts | 207° |
| 2026-04-21 13:59 | 30.73275 | 35.24729 | 10979 ft | 172 kts | 207° |
| 2026-04-21 14:00 | 30.72174 | 35.24188 | 10979 ft | 172 kts | 207° |
| 2026-04-21 14:00 | 30.71075 | 35.23649 | 10976 ft | 171 kts | 207° |
| 2026-04-21 14:00 | 30.69979 | 35.23108 | 10977 ft | 171 kts | 207° |
| 2026-04-21 14:00 | 30.68879 | 35.22570 | 10978 ft | 172 kts | 207° |
| 2026-04-21 14:01 | 30.67779 | 35.22030 | 10974 ft | 171 kts | 207° |
| 2026-04-21 14:01 | 30.66682 | 35.21489 | 10974 ft | 172 kts | 207° |
| 2026-04-21 14:01 | 30.65581 | 35.20949 | 10972 ft | 172 kts | 207° |
| 2026-04-21 14:01 | 30.64481 | 35.20409 | 10971 ft | 171 kts | 207° |
| 2026-04-21 14:02 | 30.63384 | 35.19870 | 10975 ft | 171 kts | 207° |
| 2026-04-21 14:02 | 30.62290 | 35.19334 | 10971 ft | 170 kts | 207° |
| 2026-04-21 14:02 | 30.61196 | 35.18797 | 10971 ft | 171 kts | 207° |
| 2026-04-21 14:03 | 30.59006 | 35.17723 | 10974 ft | 171 kts | 207° |
| 2026-04-21 14:03 | 30.57909 | 35.17186 | 10977 ft | 171 kts | 207° |
| 2026-04-21 14:03 | 30.56815 | 35.16649 | 10971 ft | 171 kts | 207° |
| 2026-04-21 14:03 | 30.55709 | 35.16148 | 10972 ft | 173 kts | 197° |
| 2026-04-21 14:04 | 30.54516 | 35.15929 | 10975 ft | 174 kts | 192° |
| 2026-04-21 14:04 | 30.53319 | 35.15703 | 10978 ft | 174 kts | 194° |
| 2026-04-21 14:04 | 30.52125 | 35.15467 | 10978 ft | 174 kts | 193° |
| 2026-04-21 14:04 | 30.50924 | 35.15235 | 10977 ft | 175 kts | 193° |
| 2026-04-21 14:05 | 30.49723 | 35.15003 | 10986 ft | 175 kts | 193° |
| 2026-04-21 14:05 | 30.48522 | 35.14771 | 10980 ft | 175 kts | 193° |
| 2026-04-21 14:05 | 30.47328 | 35.14540 | 10978 ft | 174 kts | 193° |
| 2026-04-21 14:05 | 30.46131 | 35.14310 | 10980 ft | 175 kts | 194° |
| 2026-04-21 14:06 | 30.44931 | 35.14077 | 10981 ft | 176 kts | 194° |
| 2026-04-21 14:06 | 30.43722 | 35.13843 | 10976 ft | 176 kts | 193° |
| 2026-04-21 14:06 | 30.42515 | 35.13634 | 10979 ft | 175 kts | 193° |
| 2026-04-21 14:06 | 30.41320 | 35.13379 | 10977 ft | 175 kts | 195° |
| 2026-04-21 14:07 | 30.40122 | 35.13129 | 10982 ft | 175 kts | 194° |
| 2026-04-21 14:07 | 30.38918 | 35.12890 | 10983 ft | 176 kts | 193° |
| 2026-04-21 14:07 | 30.37712 | 35.12652 | 10978 ft | 176 kts | 194° |
| 2026-04-21 14:07 | 30.36506 | 35.12413 | 10981 ft | 175 kts | 193° |
| 2026-04-21 14:08 | 30.35300 | 35.12174 | 10983 ft | 176 kts | 194° |
| 2026-04-21 14:08 | 30.34091 | 35.11935 | 10981 ft | 177 kts | 194° |
| 2026-04-21 14:08 | 30.32879 | 35.11696 | 10981 ft | 176 kts | 194° |
| 2026-04-21 14:08 | 30.31674 | 35.11459 | 10982 ft | 176 kts | 194° |
| 2026-04-21 14:09 | 30.30467 | 35.11219 | 10981 ft | 176 kts | 193° |
| 2026-04-21 14:09 | 30.29263 | 35.10982 | 10992 ft | 175 kts | 194° |
| 2026-04-21 14:09 | 30.28060 | 35.10744 | 10990 ft | 176 kts | 194° |
| 2026-04-21 14:09 | 30.26855 | 35.10507 | 10992 ft | 175 kts | 194° |
| 2026-04-21 14:10 | 30.25654 | 35.10268 | 10989 ft | 175 kts | 194° |
| 2026-04-21 14:10 | 30.24455 | 35.10032 | 10990 ft | 175 kts | 193° |
| 2026-04-21 14:10 | 30.23264 | 35.09798 | 10987 ft | 176 kts | 194° |
| 2026-04-21 14:10 | 30.22055 | 35.09560 | 10988 ft | 176 kts | 194° |
| 2026-04-21 14:11 | 30.20849 | 35.09321 | 10987 ft | 176 kts | 193° |
| 2026-04-21 14:11 | 30.19639 | 35.09083 | 10991 ft | 176 kts | 194° |
| 2026-04-21 14:11 | 30.18414 | 35.08841 | 10983 ft | 176 kts | 194° |
| 2026-04-21 14:11 | 30.17204 | 35.08603 | 10986 ft | 176 kts | 194° |
| 2026-04-21 14:12 | 30.15993 | 35.08363 | 10992 ft | 177 kts | 193° |
| 2026-04-21 14:12 | 30.14783 | 35.08125 | 10986 ft | 176 kts | 193° |
| 2026-04-21 14:12 | 30.13573 | 35.07889 | 10996 ft | 176 kts | 194° |
| 2026-04-21 14:12 | 30.12367 | 35.07651 | 10991 ft | 176 kts | 194° |
| 2026-04-21 14:13 | 30.11176 | 35.07415 | 10995 ft | 176 kts | 194° |
| 2026-04-21 14:13 | 30.09967 | 35.07177 | 10991 ft | 176 kts | 194° |
| 2026-04-21 14:13 | 30.08759 | 35.06942 | 10991 ft | 176 kts | 194° |
| 2026-04-21 14:13 | 30.07552 | 35.06703 | 10985 ft | 175 kts | 194° |
| 2026-04-21 14:14 | 30.06369 | 35.06473 | 10953 ft | 169 kts | 194° |
| 2026-04-21 14:14 | 30.05184 | 35.06243 | 10725 ft | 176 kts | 194° |
| 2026-04-21 14:14 | 30.03971 | 35.06001 | 10511 ft | 178 kts | 193° |
| 2026-04-21 14:14 | 30.02739 | 35.05761 | 10299 ft | 180 kts | 193° |
| 2026-04-21 14:15 | 30.01498 | 35.05520 | 10082 ft | 181 kts | 193° |
| 2026-04-21 14:15 | 30.00260 | 35.05276 | 9871 ft | 180 kts | 192° |
| 2026-04-21 14:15 | 29.99027 | 35.05036 | 9680 ft | 179 kts | 193° |
| 2026-04-21 14:15 | 29.97795 | 35.04794 | 9452 ft | 180 kts | 193° |
| 2026-04-21 14:16 | 29.96567 | 35.04557 | 9281 ft | 178 kts | 193° |
| 2026-04-21 14:16 | 29.95335 | 35.04389 | 9092 ft | 178 kts | 188° |
| 2026-04-21 14:16 | 29.94107 | 35.04270 | 8914 ft | 177 kts | 187° |
| 2026-04-21 14:16 | 29.92873 | 35.04128 | 8735 ft | 177 kts | 189° |
| 2026-04-21 14:17 | 29.91650 | 35.03982 | 8553 ft | 177 kts | 188° |
| 2026-04-21 14:17 | 29.90428 | 35.03837 | 8376 ft | 176 kts | 188° |
| 2026-04-21 14:17 | 29.89209 | 35.03696 | 8205 ft | 177 kts | 188° |
| 2026-04-21 14:17 | 29.87987 | 35.03551 | 8027 ft | 177 kts | 188° |
| 2026-04-21 14:18 | 29.86761 | 35.03405 | 7855 ft | 176 kts | 188° |
| 2026-04-21 14:18 | 29.85539 | 35.03261 | 7680 ft | 177 kts | 188° |
| 2026-04-21 14:18 | 29.84318 | 35.03116 | 7507 ft | 176 kts | 188° |
| 2026-04-21 14:18 | 29.83096 | 35.02970 | 7344 ft | 177 kts | 187° |
| 2026-04-21 14:19 | 29.81872 | 35.02827 | 7166 ft | 176 kts | 187° |
| 2026-04-21 14:19 | 29.80652 | 35.02684 | 7000 ft | 176 kts | 187° |
| 2026-04-21 14:19 | 29.79434 | 35.02539 | 6831 ft | 176 kts | 188° |
| 2026-04-21 14:19 | 29.78214 | 35.02396 | 6666 ft | 176 kts | 187° |
| 2026-04-21 14:20 | 29.77002 | 35.02224 | 6503 ft | 175 kts | 193° |
| 2026-04-21 14:20 | 29.75790 | 35.02039 | 6336 ft | 176 kts | 185° |
| 2026-04-21 14:20 | 29.74618 | 35.01702 | 6132 ft | 175 kts | 209° |
| 2026-04-21 14:20 | 29.73537 | 35.01048 | 5884 ft | 177 kts | 209° |
| 2026-04-21 14:21 | 29.72416 | 35.00424 | 5636 ft | 180 kts | 208° |
| 2026-04-21 14:21 | 29.71285 | 34.99794 | 5388 ft | 181 kts | 208° |
| 2026-04-21 14:21 | 29.70145 | 34.99155 | 5149 ft | 183 kts | 208° |
| 2026-04-21 14:21 | 29.68997 | 34.98511 | 4895 ft | 184 kts | 208° |
| 2026-04-21 14:22 | 29.67852 | 34.97869 | 4653 ft | 183 kts | 208° |
| 2026-04-21 14:22 | 29.66701 | 34.97230 | 4409 ft | 185 kts | 208° |
| 2026-04-21 14:22 | 29.65541 | 34.96585 | 4188 ft | 185 kts | 208° |
| 2026-04-21 14:22 | 29.64381 | 34.95942 | 3936 ft | 183 kts | 207° |
| 2026-04-21 14:23 | 29.63288 | 34.95336 | 3686 ft | 168 kts | 208° |
| 2026-04-21 14:23 | 29.62258 | 34.94764 | 3411 ft | 161 kts | 209° |
| 2026-04-21 14:23 | 29.61281 | 34.94220 | 3268 ft | 147 kts | 208° |
| 2026-04-21 14:23 | 29.60414 | 34.93739 | 3257 ft | 131 kts | 209° |
| 2026-04-21 14:24 | 29.59613 | 34.93293 | 3262 ft | 127 kts | 208° |
| 2026-04-21 14:24 | 29.58821 | 34.92851 | 3265 ft | 126 kts | 207° |
| 2026-04-21 14:24 | 29.58036 | 34.92415 | 3274 ft | 127 kts | 210° |
| 2026-04-21 14:24 | 29.57481 | 34.92102 | 3287 ft | 142 kts | 209° |
| 2026-04-21 14:25 | 29.56539 | 34.91576 | 3289 ft | 157 kts | 208° |
| 2026-04-21 14:25 | 29.55522 | 34.91010 | 3288 ft | 168 kts | 208° |
| 2026-04-21 14:25 | 29.54424 | 34.90494 | 3266 ft | 175 kts | 192° |
| 2026-04-21 14:25 | 29.53222 | 34.90630 | 3074 ft | 170 kts | 158° |
| 2026-04-21 14:26 | 29.52274 | 34.91330 | 2872 ft | 159 kts | 130° |
| 2026-04-21 14:26 | 29.51715 | 34.92374 | 2675 ft | 150 kts | 103° |
| 2026-04-21 14:26 | 29.51590 | 34.93526 | 2464 ft | 143 kts | 79° |
| 2026-04-21 14:26 | 29.51855 | 34.94584 | 2253 ft | 135 kts | 56° |
| 2026-04-21 14:27 | 29.52427 | 34.95417 | 2101 ft | 127 kts | 36° |
| 2026-04-21 14:27 | 29.53108 | 34.95895 | 2090 ft | 116 kts | 19° |
| 2026-04-21 14:27 | 29.53855 | 34.96120 | 2093 ft | 109 kts | 10° |
| 2026-04-21 14:27 | 29.54574 | 34.96336 | 2089 ft | 104 kts | 10° |
| 2026-04-21 14:28 | 29.55305 | 34.96527 | 2102 ft | 112 kts | 11° |
| 2026-04-21 14:28 | 29.56073 | 34.96752 | 2103 ft | 116 kts | 9° |
| 2026-04-21 14:28 | 29.56873 | 34.96965 | 2107 ft | 120 kts | 10° |
| 2026-04-21 14:28 | 29.57700 | 34.97206 | 2106 ft | 124 kts | 11° |
| 2026-04-21 14:29 | 29.58517 | 34.97433 | 2103 ft | 122 kts | 11° |
| 2026-04-21 14:29 | 29.59341 | 34.97664 | 2105 ft | 122 kts | 12° |
| 2026-04-21 14:29 | 29.60165 | 34.97897 | 2098 ft | 121 kts | 12° |
| 2026-04-21 14:29 | 29.60983 | 34.98120 | 2093 ft | 120 kts | 11° |
| 2026-04-21 14:30 | 29.61795 | 34.98348 | 2098 ft | 121 kts | 11° |
| 2026-04-21 14:30 | 29.62594 | 34.98573 | 1984 ft | 113 kts | 11° |
| 2026-04-21 14:30 | 29.63284 | 34.98770 | 1861 ft | 91 kts | 9° |
| 2026-04-21 14:30 | 29.63836 | 34.98914 | 1759 ft | 79 kts | 9° |
| 2026-04-21 14:31 | 29.64375 | 34.99078 | 1659 ft | 80 kts | 13° |
| 2026-04-21 14:31 | 29.64953 | 34.99232 | 1557 ft | 90 kts | 14° |
| 2026-04-21 14:31 | 29.65576 | 34.99410 | 1443 ft | 96 kts | 9° |
| 2026-04-21 14:31 | 29.66273 | 34.99603 | 1306 ft | 106 kts | 14° |
| 2026-04-21 14:32 | 29.66973 | 34.99801 | 1123 ft | 100 kts | 14° |
| 2026-04-21 14:32 | 29.67633 | 34.99989 | 1001 ft | 99 kts | 12° |
| 2026-04-21 14:32 | 29.68337 | 35.00180 | 867 ft | 108 kts | 14° |
| 2026-04-21 14:32 | 29.69045 | 35.00378 | 730 ft | 99 kts | 13° |
| 2026-04-21 14:33 | 29.69657 | 35.00550 | 605 ft | 86 kts | 13° |
| 2026-04-21 14:33 | 29.70248 | 35.00716 | 493 ft | 90 kts | 15° |
| 2026-04-21 14:33 | 29.70861 | 35.00890 | 372 ft | 88 kts | 13° |
| 2026-04-21 14:33 | 29.71398 | 35.01039 | 298 ft | 70 kts | 13° |
| 2026-04-21 14:34 | 29.71783 | 35.01149 | 298 ft | 50 kts | 14° |
| 2026-04-21 14:34 | 29.72096 | 35.01237 | 296 ft | 42 kts | 13° |
| 2026-04-21 14:34 | 29.72227 | 35.01126 | 296 ft | 19 kts | 274° |
| 2026-04-21 14:34 | 29.72222 | 35.00997 | 296 ft | 14 kts | 280° |
| 2026-04-21 14:35 | 29.72248 | 35.00873 | 296 ft | 17 kts | 281° |
| 2026-04-21 14:35 | 29.72253 | 35.00778 | 296 ft | 6 kts | 212° |
| 2026-04-21 14:35 | 29.72230 | 35.00772 | 296 ft | 0 kts | 194° |